• Join FlightAware (Why Join?)
  • Login
  • US Flag GB Flag 
00:13 EDT


 

Airport Tracker/Info


-or-


 

Live Flight TrackerFlight Track Log ✈ N27XP ✈ 09-Dec-2013 ✈ KDAY - KHEF

Flight Track Log - Related Links

Times and Time Zones

All times are in EST time to prevent confusion due to time zone crossing. See the N27XP flight status page for this flight to view local times or setup timezone preferences in your user account.

Time Position Orientation Groundspeed Altitude Reporting Facility
EST Latitude Longitude Course Direction KTS MPH feet Rate Location/Type
15:39 39.8661 -84.2633 213° Southwest 214 246 4,100  Level Indianapolis Center
15:39 39.8642 -84.2603 130° Southeast 209 241 4,200 2,700 Climbing Indianapolis Center
15:40 39.8056 -84.2175 151° Southeast 287 330 6,900 2,700 Climbing Indianapolis Center
15:41 39.8136 -84.1058 85° East 319 367 9,800 2,280 Climbing Indianapolis Center
15:42 39.8425 -83.9789 73° East 367 422 11,600 1,740 Climbing Indianapolis Center
15:43 39.8747 -83.8381 73° East 402 463 13,500 1,740 Climbing Indianapolis Center
15:44 39.9044 -83.6844 76° East 437 503 15,300 1,800 Climbing Indianapolis Center
15:45 39.8933 -83.5189 95° East 449 517 17,300 1,860 Climbing Indianapolis Center
15:46 39.8792 -83.3450 96° East 457 526 19,200 1,860 Climbing Indianapolis Center
15:47 39.8664 -83.1792 96° East 458 527 21,200 1,980 Climbing Indianapolis Center
15:48 39.8506 -82.9811 96° East 459 528 23,400 1,860 Climbing Indianapolis Center
15:49 39.8369 -82.8156 96° East 461 531 25,100 1,560 Climbing Indianapolis Center
15:50 39.8233 -82.6481 96° East 464 534 26,600 1,440 Climbing Indianapolis Center
15:51 39.8097 -82.4794 96° East 470 541 28,100 1,380 Climbing Indianapolis Center
15:52 39.7947 -82.3100 97° East 472 543 29,500 1,260 Climbing Indianapolis Center
15:53 39.7797 -82.1381 96° East 478 550 30,800 720 Climbing Indianapolis Center
15:54 39.7636 -81.9614 97° East 489 563 31,000 60 Climbing Indianapolis Center
15:55 39.7422 -81.7328 97° East 523 602 31,000  Level Indianapolis Center
15:56 39.7253 -81.5364 96° East 543 625 31,000  Level Indianapolis Center
15:57 39.7067 -81.3347 97° East 551 634 31,000  Level Indianapolis Center
15:58 39.6869 -81.1372 97° East 549 632 31,000  Level Indianapolis Center
15:59 39.6683 -80.9389 97° East 550 633 31,000  Level Indianapolis Center
16:00 39.6483 -80.7411 97° East 549 632 31,000  Level Indianapolis Center
16:01 39.6278 -80.5453 98° East 547 629 31,000  Level Indianapolis Center
16:02 39.6031 -80.3511 99° East 544 626 31,000  Level Indianapolis Center
16:04 39.5733 -80.1186 99° East 542 624 31,000 -2,220 Level Indianapolis Center
16:04 39.5600 -80.0008 98° East 557 641 27,000  Descending Washington Center
16:05 39.5358 -79.8083 99° East 547 629 31,000 780 Climbing Washington Center
16:06 39.5131 -79.6186 99° East 541 623 28,600 -2,040 Descending Washington Center
16:07 39.4836 -79.4342 102° East 531 611 27,000 -840 Descending Washington Center
16:08 39.4419 -79.2303 105° East 526 605 27,000 -720 Level Washington Center
16:09 39.4100 -79.0486 103° East 526 605 25,600 -1,980 Descending Washington Center
16:10 39.3775 -78.8700 103° East 521 600 23,000 -2,880 Descending Washington Center
16:11 39.3467 -78.6967 103° East 498 573 20,000 -3,240 Descending Washington Center
16:12 39.3172 -78.5344 103° East 485 558 16,700 -3,180 Descending Washington Center
16:13 39.2856 -78.3831 105° East 456 525 13,600 -2,520 Descending Washington Center
16:14 39.2256 -78.2683 124° Southeast 404 465 11,700 -2,100 Descending Washington Center
16:15 39.1694 -78.1617 124° Southeast 384 442 9,400 -2,460 Descending Washington Center
16:16 39.1172 -78.0636 124° Southeast 355 409 6,800 -2,340 Descending Washington Center
16:17 39.0731 -77.9819 125° Southeast 330 380 4,800 -1,440 Descending Washington Center
16:18 39.0289 -77.8950 123° Southeast 306 352 4,000 -900 Descending Washington Center
16:19 38.9867 -77.8161 125° Southeast 260 299 3,000 -720 Descending Washington Center
16:20 38.9544 -77.7539 124° Southeast 239 275 2,600 -240 Descending Washington Center
16:21 38.9203 -77.6861 123° Southeast 222 255 2,600  Level Washington Center
16:23 38.8500 -77.6000 136° Southeast 208 239 2,600 -240 Level Potomac TRACON
16:24 38.8167 -77.5667 142° Southeast 168 193 2,100 -600 Descending Potomac TRACON
16:25 38.7833 -77.5500 159° South 128 147 1,400 -720 Descending Potomac TRACON
16:26 38.7500 -77.5333 159° South 121 139 800 -720 Descending Potomac TRACON
16:28 38.7210 -77.5151 169° South  Level Estimated
16:35 38.7210 -77.5151 169° South  Level Estimated
16:36 38.7210 -77.5151 169° South  Level Estimated